Time;durP1;ratioP1;P1;durP2;ratioP2;P2;SDS_P1;SDS_P2;PMS_P1;PMS_P2;Temp;Humidity;BMP_temperature;BMP_pressure;BME280_temperature;BME280_humidity;BME280_pressure;Samples;Min_cycle;Max_cycle;Signal;HPM_P1;HPM_P2
2021/06/10 00:01:24;;;;;;;16.83;14.13;;;17.00;80.00;;;;;;5088480;28;20175;-87
2021/06/10 00:03:49;;;;;;;16.65;14.10;;;17.10;79.70;;;;;;5088354;28;20678;-87
2021/06/10 00:06:15;;;;;;;16.52;14.15;;;17.20;79.00;;;;;;5073105;28;20179;-87
2021/06/10 00:08:40;;;;;;;18.90;17.00;;;17.20;78.70;;;;;;5088387;28;20179;-87
2021/06/10 00:11:06;;;;;;;18.73;15.90;;;17.20;79.50;;;;;;5088347;28;20178;-87
2021/06/10 00:13:32;;;;;;;17.50;15.70;;;17.10;79.80;;;;;;5072922;28;20199;-87
2021/06/10 00:15:58;;;;;;;19.45;15.75;;;17.20;79.20;;;;;;5088252;28;20175;-87
2021/06/10 00:18:24;;;;;;;19.10;16.00;;;17.20;79.20;;;;;;5088249;28;20167;-87
2021/06/10 00:20:50;;;;;;;16.73;14.85;;;17.20;79.00;;;;;;5088304;28;20167;-87
2021/06/10 00:23:15;;;;;;;15.68;14.18;;;17.20;78.50;;;;;;5088144;28;20176;-88
2021/06/10 00:25:42;;;;;;;15.80;13.98;;;17.20;77.90;;;;;;5073069;28;20629;-88
2021/06/10 00:28:07;;;;;;;16.85;15.10;;;17.30;77.50;;;;;;5088283;28;20225;-88
2021/06/10 00:30:34;;;;;;;14.73;13.43;;;17.30;77.30;;;;;;5088217;28;20179;-87
2021/06/10 00:33:00;;;;;;;16.65;15.05;;;17.30;77.00;;;;;;5076218;28;20178;-88
2021/06/10 00:35:26;;;;;;;18.95;14.00;;;17.30;76.70;;;;;;5091754;28;20207;-87
2021/06/10 00:37:57;;;;;;;17.42;14.93;;;17.30;76.70;;;;;;5076289;28;20631;-87
2021/06/10 00:40:22;;;;;;;17.27;14.82;;;17.20;77.40;;;;;;5091912;28;20195;-87
2021/06/10 00:42:48;;;;;;;22.48;14.95;;;16.90;79.40;;;;;;5091737;28;20204;-87
2021/06/10 00:45:17;;;;;;;21.17;15.35;;;16.70;80.30;;;;;;5075942;28;20763;-87
2021/06/10 00:47:46;;;;;;;31.90;14.55;;;16.30;81.10;;;;;;5075932;28;20194;-87
2021/06/10 00:50:13;;;;;;;30.58;15.65;;;16.00;81.20;;;;;;5076242;28;20172;-87
2021/06/10 00:52:40;;;;;;;35.55;14.57;;;15.60;81.90;;;;;;5091492;28;20175;-87
2021/06/10 00:55:06;;;;;;;25.27;13.50;;;15.60;82.40;;;;;;5075686;28;20207;-87
2021/06/10 00:57:34;;;;;;;36.97;16.80;;;15.70;82.10;;;;;;5075691;28;20258;-87
2021/06/10 00:59:59;;;;;;;25.60;16.75;;;15.80;81.90;;;;;;5075736;28;20174;-87
2021/06/10 01:02:25;;;;;;;36.55;16.38;;;15.80;81.80;;;;;;5075624;28;20167;-87
2021/06/10 01:04:51;;;;;;;31.75;15.73;;;15.80;81.70;;;;;;5091255;28;20625;-87
2021/06/10 01:07:24;;;;;;;36.47;16.65;;;15.80;81.70;;;;;;5091198;28;20261;-87
2021/06/10 01:10:03;;;;;;;31.10;16.23;;;15.80;81.60;;;;;;5091069;28;20175;-86
2021/06/10 01:12:33;;;;;;;35.28;17.42;;;15.50;82.10;;;;;;5091218;28;20167;-88
2021/06/10 01:15:07;;;;;;;35.40;18.17;;;15.50;81.90;;;;;;5075300;28;20655;-87
2021/06/10 01:17:42;;;;;;;25.33;17.10;;;15.30;82.10;;;;;;5091065;28;20171;-88
2021/06/10 01:20:10;;;;;;;35.50;16.97;;;15.20;82.40;;;;;;5075360;28;20158;-87
2021/06/10 01:22:35;;;;;;;28.63;17.60;;;15.00;83.20;;;;;;5090835;28;20172;-87
2021/06/10 01:25:28;;;;;;;30.13;16.73;;;14.90;83.40;;;;;;5075068;28;20215;-87
2021/06/10 01:27:58;;;;;;;35.93;19.03;;;15.10;83.30;;;;;;5090788;28;20658;-87
2021/06/10 01:30:31;;;;;;;31.17;18.53;;;15.10;83.00;;;;;;5075081;28;20237;-87
2021/06/10 01:33:00;;;;;;;30.47;18.57;;;15.00;82.90;;;;;;5090707;28;20175;-87
2021/06/10 01:35:31;;;;;;;30.03;18.87;;;15.00;82.60;;;;;;5074942;28;20199;-87
2021/06/10 01:37:58;;;;;;;39.93;17.30;;;14.80;82.90;;;;;;5090738;28;20198;-87
2021/06/10 01:40:26;;;;;;;32.60;17.20;;;14.70;83.20;;;;;;5090509;28;20180;-87
2021/06/10 01:42:52;;;;;;;29.67;18.27;;;14.60;83.50;;;;;;5090546;28;20186;-88
2021/06/10 01:45:20;;;;;;;34.70;18.30;;;14.50;83.70;;;;;;5090403;28;20232;-87
2021/06/10 01:47:47;;;;;;;28.53;19.90;;;14.50;83.90;;;;;;5074764;28;20179;-87
2021/06/10 01:50:14;;;;;;;30.03;20.60;;;14.50;84.10;;;;;;5090407;28;20182;-87
2021/06/10 01:52:41;;;;;;;32.20;19.37;;;14.40;84.10;;;;;;5074663;28;20182;-88
2021/06/10 01:55:10;;;;;;;34.60;20.53;;;14.40;84.30;;;;;;5074439;28;20210;-87
2021/06/10 01:57:37;;;;;;;26.77;17.17;;;14.50;84.10;;;;;;5089990;28;20179;-87
2021/06/10 02:00:09;;;;;;;25.87;18.67;;;14.50;84.00;;;;;;5074641;28;20168;-88
2021/06/10 02:02:36;;;;;;;31.33;19.57;;;14.70;83.40;;;;;;5090642;28;20167;-87
2021/06/10 02:05:05;;;;;;;27.43;18.30;;;14.70;82.80;;;;;;5074372;28;20667;-88
2021/06/10 02:07:35;;;;;;;25.87;17.97;;;14.80;82.00;;;;;;5090055;28;20281;-87
2021/06/10 02:10:01;;;;;;;23.30;17.30;;;14.80;81.30;;;;;;5090323;28;20221;-87
2021/06/10 02:12:26;;;;;;;24.60;15.93;;;14.90;80.90;;;;;;5089847;28;20561;-87
2021/06/10 02:14:52;;;;;;;25.67;17.27;;;14.90;80.40;;;;;;5089719;28;20211;-88
2021/06/10 02:17:18;;;;;;;21.47;18.97;;;14.90;79.80;;;;;;5074323;28;20603;-88
2021/06/10 02:19:44;;;;;;;24.40;17.13;;;14.90;79.50;;;;;;5089773;28;20183;-87
2021/06/10 02:22:10;;;;;;;24.17;17.00;;;14.90;79.30;;;;;;5074224;28;20167;-87
2021/06/10 02:24:35;;;;;;;28.00;18.90;;;14.90;79.10;;;;;;5089525;28;20709;-87
2021/06/10 02:27:01;;;;;;;19.67;17.57;;;14.90;79.00;;;;;;5089673;28;20194;-87
2021/06/10 02:29:26;;;;;;;24.23;19.00;;;14.90;79.00;;;;;;5089694;28;20179;-88
2021/06/10 02:31:52;;;;;;;29.03;18.53;;;14.80;79.80;;;;;;5073849;28;20183;-88
2021/06/10 02:34:18;;;;;;;25.45;18.42;;;14.80;80.40;;;;;;5089364;28;20215;-87
2021/06/10 02:36:46;;;;;;;21.40;18.33;;;14.70;80.50;;;;;;5089583;28;20546;-87
2021/06/10 02:39:14;;;;;;;22.23;18.27;;;14.60;80.30;;;;;;5073795;28;20250;-88
2021/06/10 02:41:44;;;;;;;25.97;21.60;;;14.70;80.20;;;;;;5089352;28;20309;-87
2021/06/10 02:44:10;;;;;;;25.77;20.23;;;14.40;83.20;;;;;;5073712;28;20195;-87
2021/06/10 02:46:36;;;;;;;24.37;20.00;;;14.40;83.40;;;;;;5089343;28;20557;-87
2021/06/10 02:49:03;;;;;;;24.87;20.87;;;14.50;83.00;;;;;;5089340;28;20175;-87
2021/06/10 02:51:31;;;;;;;24.13;20.33;;;14.40;83.30;;;;;;5089277;28;20179;-87
2021/06/10 02:53:59;;;;;;;23.23;19.77;;;14.40;83.20;;;;;;5073013;28;20210;-87
2021/06/10 02:56:26;;;;;;;23.63;19.03;;;14.40;83.00;;;;;;5089217;28;20186;-88
2021/06/10 02:58:54;;;;;;;26.97;19.37;;;14.50;82.20;;;;;;5089160;28;20183;-87
2021/06/10 03:01:20;;;;;;;25.90;21.47;;;14.50;82.10;;;;;;5089095;28;20172;-87
2021/06/10 03:03:47;;;;;;;29.97;20.97;;;14.50;82.50;;;;;;5073645;28;20199;-87
2021/06/10 03:06:13;;;;;;;26.43;21.30;;;14.50;83.00;;;;;;5073371;28;20356;-87
2021/06/10 03:08:39;;;;;;;27.93;21.47;;;14.60;82.70;;;;;;5088949;28;20179;-88
2021/06/10 03:11:07;;;;;;;27.10;20.57;;;14.60;83.20;;;;;;5073293;28;20264;-87
2021/06/10 03:13:34;;;;;;;23.57;19.60;;;14.60;83.10;;;;;;5088942;28;20273;-88
2021/06/10 03:16:01;;;;;;;26.53;19.30;;;14.70;82.70;;;;;;5088910;28;20207;-87
2021/06/10 03:18:28;;;;;;;23.10;18.10;;;14.90;81.70;;;;;;5088841;28;20183;-87
2021/06/10 03:20:54;;;;;;;23.50;17.10;;;15.00;80.80;;;;;;5073242;28;20642;-87
2021/06/10 03:23:19;;;;;;;18.97;17.03;;;15.10;80.30;;;;;;5088571;28;20175;-86
2021/06/10 03:25:46;;;;;;;20.23;16.80;;;15.10;80.00;;;;;;5073206;28;20196;-87
2021/06/10 03:28:12;;;;;;;18.50;16.57;;;15.20;79.70;;;;;;5073232;28;20181;-88
2021/06/10 03:30:38;;;;;;;18.90;16.90;;;15.10;79.60;;;;;;5088790;28;20536;-88
2021/06/10 03:33:06;;;;;;;20.53;18.10;;;14.90;80.40;;;;;;5073109;28;20179;-88
2021/06/10 03:35:36;;;;;;;20.25;17.27;;;14.90;80.80;;;;;;5088616;28;20213;-88
2021/06/10 03:38:04;;;;;;;27.93;18.63;;;14.80;81.30;;;;;;5073425;28;20240;-88
2021/06/10 03:40:31;;;;;;;22.47;17.60;;;14.50;82.10;;;;;;5073216;28;20175;-87
2021/06/10 03:42:57;;;;;;;22.83;17.83;;;14.20;82.80;;;;;;5073059;28;20171;-88
2021/06/10 03:45:23;;;;;;;28.97;18.63;;;13.90;83.90;;;;;;5088455;28;20235;-87
2021/06/10 03:47:48;;;;;;;30.47;20.13;;;13.60;84.70;;;;;;5088555;28;20203;-86
2021/06/10 03:50:16;;;;;;;29.30;20.20;;;13.50;85.50;;;;;;5088597;28;20581;-87
2021/06/10 03:52:42;;;;;;;27.00;20.77;;;13.60;85.70;;;;;;5072956;28;20175;-87
2021/06/10 03:55:08;;;;;;;29.77;21.40;;;13.60;85.90;;;;;;5088389;28;20744;-87
2021/06/10 03:57:35;;;;;;;28.17;22.17;;;13.60;86.30;;;;;;5072924;28;20250;-87
2021/06/10 04:00:03;;;;;;;33.87;23.07;;;13.50;86.20;;;;;;5072886;28;20217;-88
2021/06/10 04:02:28;;;;;;;34.87;22.27;;;13.40;86.50;;;;;;5088451;28;20175;-87
2021/06/10 04:04:55;;;;;;;30.77;22.87;;;13.50;86.50;;;;;;5072787;28;20210;-87
2021/06/10 04:07:21;;;;;;;32.87;22.90;;;13.50;86.70;;;;;;5075738;28;20171;-87
2021/06/10 04:09:47;;;;;;;39.00;22.40;;;13.50;86.70;;;;;;5092275;28;20182;-87
2021/06/10 04:12:12;;;;;;;36.93;24.47;;;13.60;86.40;;;;;;5092303;28;20179;-87
2021/06/10 04:14:38;;;;;;;48.80;25.50;;;13.60;86.40;;;;;;5092134;28;20211;-87
2021/06/10 04:17:04;;;;;;;33.77;23.83;;;13.60;86.70;;;;;;5076558;28;20639;-87
2021/06/10 04:19:29;;;;;;;28.73;22.43;;;13.80;86.50;;;;;;5092142;28;20229;-87
2021/06/10 04:21:55;;;;;;;38.17;26.37;;;13.90;86.20;;;;;;5076411;28;20171;-87
2021/06/10 04:24:21;;;;;;;41.97;28.57;;;14.00;86.10;;;;;;5091882;28;20215;-87
2021/06/10 04:26:47;;;;;;;33.43;25.53;;;14.00;86.10;;;;;;5092049;28;20527;-88
2021/06/10 04:29:13;;;;;;;35.47;26.73;;;14.10;86.20;;;;;;5076324;28;20175;-87
2021/06/10 04:31:39;;;;;;;34.13;28.67;;;14.20;86.20;;;;;;5091909;28;20218;-87
2021/06/10 04:34:05;;;;;;;43.30;31.37;;;14.20;86.60;;;;;;5091682;28;20211;-87
2021/06/10 04:36:31;;;;;;;40.10;30.47;;;14.20;86.80;;;;;;5076221;28;20244;-87
2021/06/10 04:38:56;;;;;;;36.63;29.83;;;14.20;87.10;;;;;;5076085;28;20179;-87
2021/06/10 04:41:22;;;;;;;42.40;31.10;;;14.20;87.20;;;;;;5092028;28;20171;-87
2021/06/10 04:43:47;;;;;;;33.70;30.10;;;14.30;87.30;;;;;;5075922;28;20271;-87
2021/06/10 04:46:13;;;;;;;42.90;30.00;;;14.20;87.40;;;;;;5091620;28;20202;-87
2021/06/10 04:48:39;;;;;;;39.73;27.77;;;14.30;87.40;;;;;;5075945;28;20183;-87
2021/06/10 04:51:05;;;;;;;33.70;26.83;;;14.40;87.30;;;;;;5091511;28;20179;-87
2021/06/10 04:53:31;;;;;;;36.00;28.40;;;14.50;86.60;;;;;;5075774;28;20195;-87
2021/06/10 04:55:57;;;;;;;33.83;29.93;;;14.50;86.50;;;;;;5075900;28;20181;-88
2021/06/10 04:58:22;;;;;;;31.23;27.97;;;14.50;87.10;;;;;;5091481;28;20787;-87
2021/06/10 05:00:48;;;;;;;30.10;27.00;;;14.60;86.80;;;;;;5075768;28;20221;-88
2021/06/10 05:03:15;;;;;;;32.33;28.63;;;14.60;87.10;;;;;;5091300;28;20185;-87
2021/06/10 05:05:41;;;;;;;34.10;29.47;;;14.50;87.50;;;;;;5091296;28;20175;-87
2021/06/10 05:08:07;;;;;;;30.90;27.57;;;14.60;87.60;;;;;;5091325;28;20175;-88
2021/06/10 05:10:33;;;;;;;30.93;27.60;;;14.70;87.60;;;;;;5091273;28;20190;-88
2021/06/10 05:12:59;;;;;;;30.97;26.63;;;14.80;87.60;;;;;;5075541;28;20210;-88
2021/06/10 05:15:25;;;;;;;29.00;25.60;;;14.80;87.50;;;;;;5075377;28;20553;-88
2021/06/10 05:17:50;;;;;;;29.50;26.43;;;14.90;87.10;;;;;;5091001;28;20179;-88
2021/06/10 05:20:16;;;;;;;31.60;26.50;;;15.00;86.60;;;;;;5090937;28;20702;-87
2021/06/10 05:22:42;;;;;;;29.83;26.73;;;15.10;85.70;;;;;;5075545;28;20175;-87
2021/06/10 05:25:09;;;;;;;31.60;25.53;;;15.20;85.60;;;;;;5075132;28;20211;-87
2021/06/10 05:27:35;;;;;;;28.83;25.73;;;15.20;85.50;;;;;;5075310;28;20254;-86
2021/06/10 05:30:05;;;;;;;30.73;25.87;;;15.30;85.40;;;;;;5075159;28;20214;-86
2021/06/10 05:32:31;;;;;;;27.07;24.17;;;15.40;85.20;;;;;;5075125;28;20262;-87
2021/06/10 05:34:56;;;;;;;31.37;26.83;;;15.40;84.40;;;;;;5074993;28;20282;-87
2021/06/10 05:37:22;;;;;;;28.00;25.03;;;15.50;83.60;;;;;;5075289;28;20178;-87
2021/06/10 05:39:48;;;;;;;31.13;26.37;;;15.60;83.60;;;;;;5074934;28;20172;-87
2021/06/10 05:42:15;;;;;;;28.10;25.23;;;15.70;83.60;;;;;;5090571;28;20180;-87
2021/06/10 05:44:41;;;;;;;28.57;25.63;;;15.70;83.70;;;;;;5090680;28;20200;-87
2021/06/10 05:47:09;;;;;;;28.08;24.92;;;15.80;84.00;;;;;;5090569;28;20191;-87
2021/06/10 05:49:35;;;;;;;25.43;20.87;;;15.90;83.90;;;;;;5074893;28;20175;-87
2021/06/10 05:52:00;;;;;;;23.83;20.23;;;16.10;84.00;;;;;;5090352;28;20651;-87
2021/06/10 05:54:26;;;;;;;21.65;17.90;;;16.30;84.00;;;;;;5074693;28;20234;-87
2021/06/10 05:56:52;;;;;;;25.48;19.70;;;16.40;82.80;;;;;;5090293;28;20180;-87
2021/06/10 05:59:18;;;;;;;26.45;18.65;;;16.50;83.00;;;;;;5074795;28;20221;-85
2021/06/10 06:01:43;;;;;;;20.48;17.67;;;16.70;82.50;;;;;;5090646;28;20186;-84
2021/06/10 06:04:09;;;;;;;19.45;16.50;;;16.80;82.30;;;;;;5090268;28;20222;-84
2021/06/10 06:06:34;;;;;;;14.63;13.10;;;16.90;81.80;;;;;;5090359;28;20186;-84
2021/06/10 06:09:00;;;;;;;14.93;13.43;;;17.00;80.40;;;;;;5074863;28;20167;-84
2021/06/10 06:11:26;;;;;;;17.73;14.25;;;17.10;78.90;;;;;;5074480;28;20171;-84
2021/06/10 06:14:05;;;;;;;22.88;15.50;;;17.10;78.80;;;;;;5074858;28;20286;-84
2021/06/10 06:16:31;;;;;;;19.88;16.65;;;17.20;78.30;;;;;;5090460;28;20194;-85
2021/06/10 06:18:58;;;;;;;19.92;16.77;;;17.30;79.50;;;;;;5090022;28;20631;-84
2021/06/10 06:21:24;;;;;;;22.83;17.08;;;17.30;79.60;;;;;;5074993;28;20195;-85
2021/06/10 06:23:49;;;;;;;22.45;15.82;;;17.40;79.40;;;;;;5089769;28;20238;-84
2021/06/10 06:26:15;;;;;;;16.08;14.18;;;17.50;79.40;;;;;;5089976;28;20178;-84
2021/06/10 06:28:41;;;;;;;17.92;13.95;;;17.50;77.80;;;;;;5089287;28;20171;-85
2021/06/10 06:31:08;;;;;;;20.83;16.23;;;17.60;78.40;;;;;;5074330;28;20732;-85
2021/06/10 06:33:33;;;;;;;19.38;16.25;;;17.70;79.30;;;;;;5089498;28;20202;-85
2021/06/10 06:35:59;;;;;;;17.75;14.23;;;17.80;79.30;;;;;;5089628;28;20177;-85
2021/06/10 06:38:25;;;;;;;16.17;14.43;;;17.80;77.50;;;;;;5089519;28;20207;-84
2021/06/10 06:40:51;;;;;;;16.45;13.98;;;17.90;78.20;;;;;;5074288;28;20171;-85
2021/06/10 06:43:17;;;;;;;16.08;14.52;;;17.90;76.70;;;;;;5089750;28;20175;-85
2021/06/10 06:45:42;;;;;;;15.15;13.48;;;18.00;77.20;;;;;;5089527;28;20662;-85
2021/06/10 06:48:08;;;;;;;15.55;13.95;;;18.00;76.20;;;;;;5073741;28;20175;-85
2021/06/10 06:50:34;;;;;;;14.63;13.15;;;18.20;77.40;;;;;;5074300;28;20624;-85
2021/06/10 06:53:01;;;;;;;17.70;13.15;;;18.20;77.20;;;;;;5089498;28;20584;-85
2021/06/10 06:55:27;;;;;;;21.10;13.23;;;18.30;75.80;;;;;;5073589;28;20244;-85
2021/06/10 06:57:52;;;;;;;16.02;11.50;;;18.40;76.00;;;;;;5073932;28;20266;-84
2021/06/10 07:00:19;;;;;;;17.67;13.63;;;18.50;75.20;;;;;;5089363;28;20171;-84
2021/06/10 07:02:44;;;;;;;13.63;11.50;;;18.60;75.10;;;;;;5089194;28;20259;-85
2021/06/10 07:05:10;;;;;;;17.55;12.52;;;18.70;74.20;;;;;;5089075;28;20340;-84
2021/06/10 07:07:37;;;;;;;13.48;11.30;;;18.80;75.20;;;;;;5073712;28;20171;-84
2021/06/10 07:10:05;;;;;;;14.02;9.93;;;19.00;74.10;;;;;;5089109;28;20272;-85
2021/06/10 07:12:30;;;;;;;12.20;9.77;;;19.00;72.50;;;;;;5072362;28;20175;-84
2021/06/10 07:14:56;;;;;;;11.82;9.05;;;19.10;72.10;;;;;;5072085;28;20264;-85
2021/06/10 07:17:23;;;;;;;10.40;9.32;;;19.20;70.70;;;;;;5073285;28;20206;-85
2021/06/10 07:19:51;;;;;;;13.15;9.15;;;19.30;70.10;;;;;;5073395;28;20250;-85
2021/06/10 07:22:16;;;;;;;14.10;7.55;;;19.40;69.40;;;;;;5072029;28;20594;-85
2021/06/10 07:24:46;;;;;;;7.28;6.22;;;19.50;67.70;;;;;;5071672;28;20218;-85
2021/06/10 07:27:12;;;;;;;6.65;5.60;;;19.60;64.30;;;;;;5073253;28;20168;-85
2021/06/10 07:29:38;;;;;;;12.90;6.75;;;19.60;65.50;;;;;;5072025;28;20171;-85
2021/06/10 07:32:04;;;;;;;7.72;6.47;;;19.70;64.00;;;;;;5073495;28;20221;-85
2021/06/10 07:34:30;;;;;;;8.00;7.20;;;19.70;66.30;;;;;;5072950;28;20207;-85
2021/06/10 07:36:55;;;;;;;7.85;6.03;;;19.60;67.00;;;;;;5073138;28;20194;-84
2021/06/10 07:39:21;;;;;;;6.40;5.82;;;19.90;69.30;;;;;;5071882;28;20179;-84
2021/06/10 07:41:47;;;;;;;5.68;5.07;;;20.20;67.10;;;;;;5076849;28;20167;-85
2021/06/10 07:44:12;;;;;;;8.68;4.30;;;20.30;65.00;;;;;;5075745;28;20199;-85
2021/06/10 07:46:38;;;;;;;4.55;4.15;;;20.20;60.90;;;;;;5077132;28;20178;-86
2021/06/10 07:49:03;;;;;;;4.20;3.78;;;20.20;61.20;;;;;;5075878;28;20203;-86
2021/06/10 07:51:29;;;;;;;6.65;4.03;;;20.40;61.80;;;;;;5077332;28;20176;-86
2021/06/10 07:53:55;;;;;;;5.25;4.35;;;20.40;59.20;;;;;;5075638;28;20302;-85
2021/06/10 07:56:20;;;;;;;9.43;6.30;;;20.60;62.70;;;;;;5076972;28;20565;-85
2021/06/10 07:58:46;;;;;;;9.45;8.38;;;20.80;57.20;;;;;;5075970;28;20167;-85
2021/06/10 08:01:11;;;;;;;12.93;6.35;;;20.80;57.50;;;;;;5075759;28;20175;-86
2021/06/10 08:03:37;;;;;;;11.20;7.32;;;20.90;58.80;;;;;;5075609;28;20237;-85
2021/06/10 08:06:03;;;;;;;9.75;8.75;;;21.10;61.60;;;;;;5075478;28;20175;-86
2021/06/10 08:08:29;;;;;;;9.43;8.18;;;21.00;57.50;;;;;;5076739;28;20163;-86
2021/06/10 08:10:59;;;;;;;9.32;8.25;;;21.10;58.20;;;;;;5075541;28;20528;-87
2021/06/10 08:13:25;;;;;;;10.05;7.80;;;21.00;58.70;;;;;;5075317;28;20191;-86
2021/06/10 08:15:51;;;;;;;11.93;9.80;;;21.00;59.80;;;;;;5075408;28;20643;-86
2021/06/10 08:18:18;;;;;;;13.52;9.85;;;21.20;61.10;;;;;;5076821;28;20167;-86
2021/06/10 08:20:43;;;;;;;12.13;10.30;;;21.50;60.90;;;;;;5075224;28;20183;-86
2021/06/10 08:23:09;;;;;;;11.00;9.45;;;21.70;59.20;;;;;;5076181;28;20175;-86
2021/06/10 08:25:41;;;;;;;12.13;10.57;;;21.80;60.90;;;;;;5075187;28;20268;-86
2021/06/10 08:28:07;;;;;;;16.40;10.65;;;21.70;60.10;;;;;;5076352;28;20244;-86
2021/06/10 08:30:33;;;;;;;15.13;11.90;;;21.70;61.30;;;;;;5091944;28;20214;-86
2021/06/10 08:32:58;;;;;;;14.30;10.38;;;21.80;59.00;;;;;;5092132;28;20172;-88
2021/06/10 08:35:24;;;;;;;12.73;11.10;;;22.00;58.20;;;;;;5092741;28;20301;-88
2021/06/10 08:37:50;;;;;;;10.65;9.38;;;22.20;55.10;;;;;;5076265;28;20662;-88
2021/06/10 08:40:16;;;;;;;12.80;9.60;;;22.20;57.30;;;;;;5075044;28;20595;-88
2021/06/10 08:42:43;;;;;;;14.45;8.73;;;22.50;55.60;;;;;;5076356;28;20172;-89
2021/06/10 08:45:17;;;;;;;10.95;9.15;;;22.80;53.30;;;;;;5075048;28;20198;-89
2021/06/10 08:47:46;;;;;;;12.63;9.15;;;23.00;56.40;;;;;;5075204;28;20162;-89
2021/06/10 08:50:18;;;;;;;14.40;10.68;;;22.80;53.70;;;;;;5076195;28;20222;-89
2021/06/10 08:52:44;;;;;;;12.73;10.43;;;22.80;49.30;;;;;;5091338;28;20198;-89
2021/06/10 08:55:12;;;;;;;10.70;8.38;;;22.70;51.90;;;;;;5074790;28;20642;-89
2021/06/10 08:57:38;;;;;;;10.25;9.18;;;22.90;52.30;;;;;;5074561;28;20177;-89
2021/06/10 09:00:05;;;;;;;10.32;8.30;;;23.00;51.00;;;;;;5074567;28;20180;-89
2021/06/10 09:02:31;;;;;;;9.52;6.60;;;22.90;55.10;;;;;;5074541;28;20647;-89
2021/06/10 09:05:04;;;;;;;9.45;8.05;;;23.10;53.60;;;;;;5074415;28;20195;-89
2021/06/10 09:07:37;;;;;;;9.57;8.07;;;22.90;52.40;;;;;;5075714;28;20186;-89
2021/06/10 09:10:07;;;;;;;8.90;6.53;;;23.10;50.70;;;;;;5074513;28;20178;-89
2021/06/10 09:12:59;;;;;;;10.90;6.25;;;23.20;54.40;;;;;;5074346;28;20183;-89
2021/06/10 09:15:27;;;;;;;8.52;7.50;;;23.50;51.70;;;;;;5074228;28;20294;-89
2021/06/10 09:17:55;;;;;;;9.90;8.07;;;23.50;53.10;;;;;;5074279;28;20179;-89
2021/06/10 09:20:20;;;;;;;11.25;8.95;;;23.60;50.30;;;;;;5075102;28;20175;-89
2021/06/10 09:23:16;;;;;;;13.57;10.38;;;23.20;49.80;;;;;;5074243;28;20643;-90
2021/06/10 09:25:44;;;;;;;12.00;9.75;;;23.50;51.70;;;;;;5074233;28;20168;-90
2021/06/10 09:28:10;;;;;;;12.27;10.93;;;24.00;51.40;;;;;;5074158;28;20270;-90
2021/06/10 09:30:48;;;;;;;11.73;10.38;;;23.60;48.50;;;;;;5090920;28;20214;-90
2021/06/10 09:33:24;;;;;;;11.32;9.23;;;23.60;51.60;;;;;;5090808;28;20170;-90
2021/06/10 09:35:51;;;;;;;13.80;9.07;;;23.40;51.80;;;;;;5074307;28;20171;-90
2021/06/10 09:38:20;;;;;;;14.48;9.60;;;23.30;54.20;;;;;;5073934;28;20183;-89
2021/06/10 09:40:51;;;;;;;12.95;10.68;;;23.50;53.20;;;;;;5073928;28;20175;-90
2021/06/10 09:43:19;;;;;;;12.77;11.43;;;23.90;49.50;;;;;;5090644;28;20159;-90
2021/06/10 09:45:49;;;;;;;16.05;12.55;;;24.30;49.60;;;;;;5090649;28;20186;-90
2021/06/10 09:48:15;;;;;;;15.60;11.80;;;24.00;50.60;;;;;;5091288;28;20168;-89
2021/06/10 09:50:46;;;;;;;14.05;10.23;;;23.90;47.50;;;;;;5090635;28;20187;-89
2021/06/10 09:53:32;;;;;;;12.20;10.27;;;23.30;50.30;;;;;;5090610;28;20250;-90
2021/06/10 09:56:07;;;;;;;11.40;9.20;;;23.40;50.60;;;;;;5090457;28;20172;-90
2021/06/10 09:58:41;;;;;;;12.60;10.88;;;23.60;52.60;;;;;;5073573;28;20265;-90
2021/06/10 10:01:16;;;;;;;11.98;10.45;;;24.10;53.00;;;;;;5090257;28;20164;-90
2021/06/10 10:03:45;;;;;;;10.15;8.20;;;24.30;50.90;;;;;;5091111;28;20194;-91
2021/06/10 10:06:21;;;;;;;14.57;9.85;;;24.70;50.40;;;;;;5079868;28;20195;-91
2021/06/10 10:08:50;;;;;;;11.43;10.15;;;25.20;47.30;;;;;;5079180;28;20182;-91
2021/06/10 10:11:17;;;;;;;12.40;9.13;;;25.30;45.30;;;;;;5095165;28;20175;-91
2021/06/10 10:13:46;;;;;;;10.20;9.13;;;25.30;47.10;;;;;;5079343;28;20191;-91
2021/06/10 10:16:13;;;;;;;10.77;9.52;;;25.60;47.40;;;;;;5079420;28;20182;-91
2021/06/10 10:18:39;;;;;;;12.90;11.18;;;25.70;46.20;;;;;;5084132;28;20189;-91
2021/06/10 10:21:06;;;;;;;15.73;14.13;;;25.90;47.80;;;;;;5098963;28;20175;-91
2021/06/10 10:23:34;;;;;;;16.02;12.10;;;25.70;46.40;;;;;;5098280;28;20202;-91
2021/06/10 10:26:03;;;;;;;14.88;11.52;;;25.50;45.50;;;;;;5099247;28;20669;-91
2021/06/10 10:35:22;;;;;;;15.32;12.82;;;25.00;51.30;;;;;;5133693;27;20545;-92
2021/06/10 10:37:53;;;;;;;14.13;12.63;;;24.60;51.00;;;;;;5134111;28;20185;-93
2021/06/10 10:40:24;;;;;;;14.30;12.80;;;24.90;52.10;;;;;;5117828;28;20178;-93
2021/06/10 10:42:54;;;;;;;16.00;12.55;;;25.40;48.40;;;;;;5117766;28;20721;-93
2021/06/10 10:45:20;;;;;;;15.85;14.35;;;25.40;49.50;;;;;;5121068;28;20196;-91
2021/06/10 10:47:49;;;;;;;16.77;14.43;;;25.00;49.30;;;;;;5118775;28;20190;-91
2021/06/10 10:50:30;;;;;;;15.80;14.10;;;24.70;48.60;;;;;;5120883;28;20180;-91
2021/06/10 10:52:57;;;;;;;16.00;13.70;;;24.70;52.40;;;;;;5117829;28;20200;-91
2021/06/10 10:55:31;;;;;;;14.30;12.73;;;25.00;50.40;;;;;;5119664;28;20194;-91
2021/06/10 10:58:02;;;;;;;16.67;13.50;;;24.90;50.10;;;;;;5118387;28;20170;-91
2021/06/10 11:00:45;;;;;;;16.25;12.82;;;24.90;55.00;;;;;;5118654;28;20190;-91
2021/06/10 11:03:26;;;;;;;17.05;14.95;;;25.50;50.60;;;;;;5120034;28;20624;-91
2021/06/10 11:05:52;;;;;;;15.40;12.57;;;25.90;50.30;;;;;;5119431;28;20211;-91
2021/06/10 11:16:03;;;;;;;18.02;16.23;;;25.80;47.60;;;;;;5157201;27;20520;-93
2021/06/10 11:18:40;;;;;;;19.23;15.20;;;25.70;46.10;;;;;;5141837;28;20165;-93
2021/06/10 11:21:11;;;;;;;15.95;14.45;;;25.50;48.20;;;;;;5143684;28;20173;-93
2021/06/10 11:23:37;;;;;;;18.45;14.50;;;25.60;49.80;;;;;;5157995;22;20193;-85
2021/06/10 11:26:13;;;;;;;20.15;16.23;;;25.70;51.70;;;;;;5072575;28;20266;-84
2021/06/10 11:28:38;;;;;;;16.95;15.00;;;25.80;48.80;;;;;;5090606;28;20159;-85
2021/06/10 11:31:22;;;;;;;17.20;13.95;;;26.00;49.40;;;;;;5072400;28;20166;-86
2021/06/10 11:33:49;;;;;;;17.80;15.32;;;26.10;50.60;;;;;;5095010;28;20274;-86
2021/06/10 11:36:16;;;;;;;16.60;14.73;;;26.20;47.50;;;;;;5092536;28;20687;-85
2021/06/10 11:38:50;;;;;;;19.38;14.57;;;26.50;47.90;;;;;;5111011;28;20178;-85
2021/06/10 11:41:20;;;;;;;16.13;13.35;;;26.90;46.30;;;;;;5110805;28;20189;-86
2021/06/10 11:43:53;;;;;;;16.13;13.85;;;27.00;48.90;;;;;;5092804;28;20681;-86
2021/06/10 11:46:19;;;;;;;14.70;12.02;;;27.50;46.60;;;;;;5111009;28;20178;-86
2021/06/10 11:48:50;;;;;;;17.05;15.07;;;27.90;46.90;;;;;;5092563;28;20571;-86
2021/06/10 11:51:25;;;;;;;16.15;14.43;;;27.90;46.10;;;;;;5110563;28;20158;-86
2021/06/10 11:53:53;;;;;;;19.25;16.80;;;27.70;46.10;;;;;;5092171;28;20189;-86
2021/06/10 11:56:27;;;;;;;16.17;12.55;;;27.20;43.50;;;;;;5110383;28;20256;-86
2021/06/10 11:58:55;;;;;;;19.02;15.07;;;27.20;45.70;;;;;;5092090;28;20174;-87
2021/06/10 12:01:21;;;;;;;17.13;14.45;;;27.50;46.60;;;;;;5092109;28;20673;-86
2021/06/10 12:03:47;;;;;;;14.57;12.80;;;27.40;45.50;;;;;;5091927;28;20198;-86
2021/06/10 12:06:14;;;;;;;15.50;13.85;;;27.50;46.60;;;;;;5092048;28;20194;-86
2021/06/10 12:08:43;;;;;;;15.15;13.65;;;27.70;44.40;;;;;;5091989;28;20253;-86
2021/06/10 12:11:14;;;;;;;22.13;15.98;;;27.70;45.60;;;;;;5092002;28;20626;-86
2021/06/10 12:13:52;;;;;;;15.40;13.25;;;27.40;42.20;;;;;;5091725;28;20190;-86
2021/06/10 12:16:19;;;;;;;18.48;16.50;;;27.70;44.30;;;;;;5091911;28;20173;-86
2021/06/10 12:18:47;;;;;;;14.73;13.15;;;27.00;44.40;;;;;;5109919;28;20181;-86
2021/06/10 12:21:27;;;;;;;17.17;15.40;;;27.70;46.30;;;;;;5110199;28;20642;-86
2021/06/10 12:23:59;;;;;;;18.67;15.95;;;28.30;42.80;;;;;;5091421;28;20306;-86
2021/06/10 12:26:27;;;;;;;18.40;15.23;;;27.40;43.80;;;;;;5100492;28;20630;-86
2021/06/10 12:28:55;;;;;;;16.08;12.88;;;27.00;46.40;;;;;;5096204;28;20175;-86
2021/06/10 12:31:21;;;;;;;17.33;13.10;;;27.20;47.20;;;;;;5078019;28;20654;-86
2021/06/10 12:33:55;;;;;;;18.90;14.48;;;27.80;45.30;;;;;;5096016;28;20560;-86
2021/06/10 12:36:25;;;;;;;16.77;15.20;;;28.20;44.10;;;;;;5096110;28;20216;-86
2021/06/10 12:38:57;;;;;;;17.77;13.88;;;28.60;43.50;;;;;;5096007;28;20689;-86
2021/06/10 12:41:25;;;;;;;18.38;15.25;;;28.40;44.00;;;;;;5095953;28;20668;-86
2021/06/10 12:43:52;;;;;;;17.73;13.90;;;28.80;43.60;;;;;;5077558;28;20194;-86
2021/06/10 12:46:21;;;;;;;17.02;15.32;;;28.80;45.10;;;;;;5077691;28;20607;-86
2021/06/10 12:49:00;;;;;;;16.50;15.00;;;28.70;42.40;;;;;;5077700;28;20167;-85